Terminal Aerodrome Forecast
Issued by NWS

Home | Current Version | Previous Version | Text Only | Print | Product List | Glossary On
Versions: 1 2 3 4 5 6 7 8 9 10 11 12 13 14 15 16 17 18
000
FTUS42 KMHX 312341 AAC
TAFPGV
TAF AMD
KPGV 312341Z 0100/0124 08005KT P6SM SCT025 BKN050
     FM010500 VRB04KT 6SM BR OVC025
     FM010630 VRB04KT 5SM BR OVC007
     FM011400 05007KT P6SM OVC015
     FM011600 06008KT P6SM OVC035
     FM011800 06009KT P6SM SHRA SCT025 OVC045
      AMD LTD TO CLD VIS AND WIND=

USA.gov is the U.S. government's official web portal to all federal, state and local government web resources and services.